Time;durP1;ratioP1;P1;durP2;ratioP2;P2;SDS_P1;SDS_P2;PMS_P1;PMS_P2;Temp;Humidity;BMP_temperature;BMP_pressure;BME280_temperature;BME280_humidity;BME280_pressure;Samples;Min_cycle;Max_cycle;Signal;HPM_P1;HPM_P2
2022/08/07 00:00:05;;;;;;;0.10;0.10;;;;;;;22.97;55.43;102220.84;5107047;28;20103;-38
2022/08/07 00:02:30;;;;;;;0.10;0.10;;;;;;;22.96;55.41;102211.66;5125249;27;20067;-38
2022/08/07 00:05:06;;;;;;;0.10;0.10;;;;;;;22.97;55.28;102218.06;5127686;28;20047;-38
2022/08/07 00:07:32;;;;;;;0.10;0.10;;;;;;;22.96;55.49;102214.44;5126081;27;20062;-37
2022/08/07 00:10:07;;;;;;;0.10;0.10;;;;;;;22.96;55.36;102211.66;5126953;28;20051;-37
2022/08/07 00:12:52;;;;;;;0.10;0.10;;;;;;;22.97;55.45;102212.50;5125094;28;20099;-39
2022/08/07 00:15:27;;;;;;;0.10;0.10;;;;;;;22.96;55.35;102203.34;5126419;28;20104;-38
2022/08/07 00:18:13;;;;;;;0.10;0.10;;;;;;;22.97;55.29;102206.94;5128616;28;20062;-38
2022/08/07 00:20:45;;;;;;;0.10;0.10;;;;;;;22.97;55.39;102204.16;5110734;28;20058;-41
2022/08/07 00:23:13;;;;;;;0.10;0.10;;;;;;;22.97;55.33;102204.16;5128759;28;20039;-40
2022/08/07 00:25:39;;;;;;;0.20;0.20;;;;;;;22.97;55.38;102204.16;5127396;28;20048;-39
2022/08/07 00:28:07;;;;;;;0.10;0.10;;;;;;;22.96;55.41;102202.50;5126322;28;20133;-39
2022/08/07 00:30:36;;;;;;;0.10;0.10;;;;;;;22.96;55.57;102200.56;5127679;28;20115;-39
2022/08/07 00:33:01;;;;;;;0.10;0.10;;;;;;;22.95;55.37;102201.69;5126625;28;20047;-38
2022/08/07 00:35:28;;;;;;;0.10;0.10;;;;;;;22.97;55.47;102199.47;5125661;28;20134;-38
2022/08/07 00:37:55;;;;;;;0.10;0.10;;;;;;;22.96;55.27;102203.34;5107145;28;20513;-39
2022/08/07 00:40:22;;;;;;;0.10;0.10;;;;;;;22.95;55.32;102193.34;5127239;28;20113;-38
2022/08/07 00:43:09;;;;;;;0.10;0.10;;;;;;;22.96;55.39;102195.00;5125177;28;20097;-39
2022/08/07 00:45:55;;;;;;;0.10;0.10;;;;;;;22.95;55.52;102190.56;5108977;28;20051;-38
2022/08/07 00:48:20;;;;;;;0.10;0.10;;;;;;;22.96;55.38;102192.22;5125029;28;20048;-39
2022/08/07 00:50:57;;;;;;;0.10;0.10;;;;;;;22.96;55.38;102189.44;5122635;28;20047;-39
2022/08/07 00:53:22;;;;;;;0.10;0.10;;;;;;;22.95;55.20;102187.78;5123939;28;20465;-39
2022/08/07 00:55:49;;;;;;;0.10;0.10;;;;;;;22.96;55.41;102185.84;5126600;28;20457;-39
2022/08/07 00:58:29;;;;;;;0.10;0.10;;;;;;;22.96;55.40;102189.44;5126502;28;20047;-38
2022/08/07 01:00:55;;;;;;;0.10;0.10;;;;;;;22.96;55.38;102183.06;5084221;28;20138;-39
2022/08/07 01:03:21;;;;;;;0.10;0.10;;;;;;;22.97;55.36;102191.13;5125377;27;20043;-38
2022/08/07 01:06:07;;;;;;;0.10;0.10;;;;;;;22.95;55.24;102182.22;5112456;28;20386;-39
2022/08/07 01:08:33;;;;;;;0.10;0.10;;;;;;;22.96;55.40;102180.28;5124316;28;20086;-39
2022/08/07 01:10:59;;;;;;;0.10;0.10;;;;;;;22.96;55.32;102181.09;5126040;28;20103;-38
2022/08/07 01:13:44;;;;;;;0.10;0.10;;;;;;;22.96;55.19;102169.16;5110791;28;20047;-38
2022/08/07 01:16:21;;;;;;;0.10;0.10;;;;;;;22.96;55.44;102174.72;5125580;28;20047;-39
2022/08/07 01:18:56;;;;;;;0.10;0.10;;;;;;;22.96;55.27;102172.78;5131021;28;20077;-38
2022/08/07 01:21:24;;;;;;;0.10;0.10;;;;;;;22.96;55.31;102167.22;5130275;28;20488;-38
2022/08/07 01:23:53;;;;;;;0.10;0.10;;;;;;;22.96;55.28;102167.22;5129992;28;20043;-39
2022/08/07 01:26:19;;;;;;;0.10;0.10;;;;;;;22.96;55.27;102167.22;5128379;28;20065;-39
2022/08/07 01:28:47;;;;;;;0.10;0.10;;;;;;;22.96;55.30;102163.59;5094281;28;20074;-39
2022/08/07 01:31:15;;;;;;;;;;;;;;;22.96;55.18;102163.59;5130388;28;20043;-37
2022/08/07 01:33:44;;;;;;;0.10;0.10;;;;;;;22.95;55.14;102161.94;5129329;28;20489;-39
2022/08/07 01:36:22;;;;;;;0.10;0.10;;;;;;;22.96;55.21;102163.59;5128476;28;20086;-39
2022/08/07 01:38:59;;;;;;;0.10;0.10;;;;;;;22.96;55.36;102163.59;5127296;28;20070;-38
2022/08/07 01:41:25;;;;;;;0.10;0.10;;;;;;;22.96;55.34;102161.66;5126332;28;20527;-39
2022/08/07 01:43:52;;;;;;;0.10;0.10;;;;;;;22.96;55.15;102163.59;5130461;28;20042;-38
2022/08/07 01:46:19;;;;;;;0.10;0.10;;;;;;;22.96;55.32;102163.59;5110444;28;20367;-39
2022/08/07 01:48:47;;;;;;;0.10;0.10;;;;;;;22.97;55.45;102154.16;5090714;28;20078;-37
2022/08/07 01:51:17;;;;;;;0.10;0.10;;;;;;;22.95;55.51;102150.84;5125297;28;20071;-38
2022/08/07 01:54:06;;;;;;;0.10;0.10;;;;;;;22.95;55.13;102151.66;5110130;28;20043;-38
2022/08/07 01:56:51;;;;;;;0.10;0.10;;;;;;;22.96;55.30;102155.28;5112553;28;20054;-37
2022/08/07 01:59:21;;;;;;;0.10;0.10;;;;;;;22.96;55.23;102152.50;5111987;28;20059;-37
2022/08/07 02:01:53;;;;;;;0.10;0.10;;;;;;;22.96;55.27;102160.84;5107734;28;20070;-38
2022/08/07 02:04:37;;;;;;;0.10;0.10;;;;;;;22.95;54.86;102162.78;5111715;28;20045;-38
2022/08/07 02:07:05;;;;;;;0.10;0.10;;;;;;;22.95;55.12;102161.94;5110280;28;20051;-39
2022/08/07 02:09:31;;;;;;;0.10;0.10;;;;;;;22.96;55.28;102158.06;5130341;28;20071;-38
2022/08/07 02:12:18;;;;;;;0.10;0.10;;;;;;;22.95;55.25;102154.44;5111101;28;20042;-39
2022/08/07 02:14:46;;;;;;;0.10;0.10;;;;;;;22.96;55.08;102158.88;5123517;28;20075;-39
2022/08/07 02:17:12;;;;;;;;;;;;;;;22.96;55.28;102156.09;5112179;28;20092;-39
2022/08/07 02:19:43;;;;;;;0.20;0.20;;;;;;;22.95;55.32;102153.63;5106793;28;19927;-38
2022/08/07 02:22:30;;;;;;;0.10;0.10;;;;;;;22.95;55.13;102160.00;5100035;28;20082;-37
2022/08/07 02:24:56;;;;;;;0.10;0.10;;;;;;;22.95;55.28;102154.44;5111838;28;20516;-40
2022/08/07 02:27:24;;;;;;;0.10;0.10;;;;;;;22.95;55.07;102148.88;5110615;28;20126;-38
2022/08/07 02:29:50;;;;;;;0.10;0.10;;;;;;;22.95;55.27;102148.06;5109966;28;20130;-38
2022/08/07 02:32:21;;;;;;;0.10;0.10;;;;;;;22.95;55.20;102150.84;5109857;28;20442;-38
2022/08/07 02:34:53;;;;;;;0.10;0.10;;;;;;;22.95;55.04;102148.06;5127019;28;20047;-39
2022/08/07 02:37:20;;;;;;;0.20;0.20;;;;;;;22.95;54.99;102148.88;5125190;28;20080;-37
2022/08/07 02:39:48;;;;;;;0.10;0.10;;;;;;;22.95;55.38;102146.13;5128170;28;20047;-37
2022/08/07 02:42:33;;;;;;;0.10;0.10;;;;;;;22.95;55.08;102146.13;5112389;28;20072;-39
2022/08/07 02:45:02;;;;;;;0.10;0.10;;;;;;;22.95;55.08;102139.72;5127113;28;20474;-37
2022/08/07 02:47:48;;;;;;;0.10;0.10;;;;;;;22.96;55.12;102149.72;5113246;28;20039;-39
2022/08/07 02:50:14;;;;;;;0.10;0.10;;;;;;;22.95;55.33;102146.13;5127942;28;20184;-39
2022/08/07 02:52:47;;;;;;;0.10;0.10;;;;;;;22.95;55.22;102142.50;5127685;28;20056;-40
2022/08/07 02:55:19;;;;;;;0.10;0.10;;;;;;;22.94;55.19;102141.69;5109789;28;20096;-40
2022/08/07 02:58:09;;;;;;;0.10;0.10;;;;;;;22.95;55.17;102142.50;5112642;28;20070;-39
2022/08/07 03:00:37;;;;;;;0.10;0.10;;;;;;;22.95;55.10;102134.16;5131205;27;20078;-41
2022/08/07 03:03:06;;;;;;;0.10;0.10;;;;;;;22.94;55.01;102147.22;5110861;28;20425;-41
2022/08/07 03:05:39;;;;;;;0.10;0.10;;;;;;;22.95;55.21;102143.34;5128716;28;20130;-41
2022/08/07 03:08:06;;;;;;;0.10;0.10;;;;;;;22.96;55.24;102147.78;5126179;28;20092;-41
2022/08/07 03:10:36;;;;;;;0.10;0.10;;;;;;;22.96;54.82;102139.44;5110834;28;20157;-41
2022/08/07 03:13:14;;;;;;;0.10;0.10;;;;;;;22.95;54.74;102146.13;5128849;28;20047;-41
2022/08/07 03:15:40;;;;;;;0.10;0.10;;;;;;;22.95;55.01;102142.50;5089668;28;20050;-41
2022/08/07 03:18:25;;;;;;;0.10;0.10;;;;;;;22.95;55.02;102146.13;5131555;28;20058;-41
2022/08/07 03:21:03;;;;;;;0.10;0.10;;;;;;;22.95;54.93;102145.28;5127251;28;20043;-40
2022/08/07 03:23:29;;;;;;;0.00;0.00;;;;;;;22.95;55.21;102146.13;5129785;28;20130;-41
2022/08/07 03:26:17;;;;;;;0.10;0.10;;;;;;;22.95;54.86;102143.34;5111658;28;20477;-41
2022/08/07 03:28:49;;;;;;;0.10;0.10;;;;;;;22.95;54.97;102139.72;5107946;28;20072;-41
2022/08/07 03:31:18;;;;;;;0.10;0.10;;;;;;;22.95;54.72;102136.94;5126946;28;20058;-41
2022/08/07 03:33:45;;;;;;;0.10;0.10;;;;;;;22.94;55.00;102130.56;5128366;28;20179;-41
2022/08/07 03:36:14;;;;;;;0.10;0.10;;;;;;;22.95;54.68;102136.94;5109339;28;20469;-41
2022/08/07 03:38:42;;;;;;;0.10;0.10;;;;;;;22.95;54.89;102134.16;5125395;28;20047;-41
2022/08/07 03:41:11;;;;;;;0.10;0.10;;;;;;;22.95;55.07;102137.78;5126854;28;20148;-39
2022/08/07 03:43:37;;;;;;;0.10;0.10;;;;;;;22.94;55.18;102136.13;5126221;28;20101;-39
2022/08/07 03:46:10;;;;;;;0.10;0.10;;;;;;;22.94;55.05;102126.97;5124756;28;20062;-41
2022/08/07 03:48:44;;;;;;;0.10;0.10;;;;;;;22.94;54.78;102129.72;5123946;28;20054;-39
2022/08/07 03:51:29;;;;;;;0.10;0.10;;;;;;;22.94;54.85;102132.50;5127921;28;20051;-41
2022/08/07 03:54:13;;;;;;;0.10;0.10;;;;;;;22.95;54.61;102128.63;5110480;28;20043;-41
2022/08/07 03:56:59;;;;;;;0.10;0.10;;;;;;;22.94;55.13;102133.34;5110447;28;20050;-41
2022/08/07 03:59:33;;;;;;;0.10;0.10;;;;;;;22.95;55.10;102129.44;5122183;28;20072;-41
2022/08/07 04:01:59;;;;;;;0.10;0.10;;;;;;;22.95;54.95;102134.16;5129450;28;20087;-41
2022/08/07 04:04:24;;;;;;;0.10;0.10;;;;;;;22.96;54.66;102133.06;5129451;27;20039;-41
2022/08/07 04:06:51;;;;;;;0.10;0.10;;;;;;;22.95;54.99;102128.63;5128262;28;20070;-41
2022/08/07 04:09:18;;;;;;;0.10;0.10;;;;;;;22.95;54.81;102135.00;5106737;28;20469;-41
2022/08/07 04:11:49;;;;;;;0.10;0.10;;;;;;;22.94;54.81;102132.50;5124320;28;20043;-42
2022/08/07 04:14:35;;;;;;;0.10;0.10;;;;;;;22.94;55.03;102133.34;5112495;28;20055;-41
2022/08/07 04:17:09;;;;;;;0.10;0.10;;;;;;;22.94;54.91;102119.44;5124956;28;20054;-41
2022/08/07 04:19:46;;;;;;;0.10;0.10;;;;;;;22.94;55.04;102127.78;5126714;28;20522;-41
2022/08/07 04:22:23;;;;;;;0.10;0.10;;;;;;;22.94;54.95;102124.19;5110929;28;20085;-41
2022/08/07 04:24:54;;;;;;;0.10;0.10;;;;;;;22.95;54.50;102128.63;5126836;28;20394;-41
2022/08/07 04:27:23;;;;;;;0.10;0.10;;;;;;;22.95;54.51;102131.41;5125783;28;20081;-41
2022/08/07 04:29:52;;;;;;;0.10;0.10;;;;;;;22.94;55.09;102127.78;5127623;28;20447;-40
2022/08/07 04:32:28;;;;;;;0.10;0.10;;;;;;;22.95;54.92;102139.72;5127095;28;20413;-39
2022/08/07 04:35:02;;;;;;;0.10;0.10;;;;;;;22.95;54.79;102134.16;5127293;28;20058;-40
2022/08/07 04:37:31;;;;;;;0.10;0.10;;;;;;;22.94;54.51;102141.69;5125584;28;20047;-41
2022/08/07 04:40:17;;;;;;;0.10;0.10;;;;;;;22.94;54.69;102140.84;5097102;28;20536;-41
2022/08/07 04:42:45;;;;;;;0.10;0.10;;;;;;;22.95;54.68;102150.84;5126913;28;20469;-41
2022/08/07 04:45:17;;;;;;;0.15;0.15;;;;;;;22.94;55.14;102150.00;5124451;28;20440;-41
2022/08/07 04:48:06;;;;;;;0.10;0.10;;;;;;;22.94;54.93;102146.41;5103088;27;20039;-41
2022/08/07 04:50:44;;;;;;;0.10;0.10;;;;;;;22.94;55.06;102152.78;5111134;28;20047;-41
2022/08/07 04:53:39;;;;;;;0.10;0.10;;;;;;;22.94;54.96;102140.84;5113383;28;20541;-41
2022/08/07 04:56:36;;;;;;;0.10;0.10;;;;;;;22.94;54.73;102146.41;5101376;28;20047;-41
2022/08/07 04:59:29;;;;;;;0.10;0.10;;;;;;;22.93;54.96;102145.56;5100083;28;20054;-41
2022/08/07 05:02:23;;;;;;;0.10;0.10;;;;;;;22.94;54.64;102144.44;5101915;28;20113;-41
2022/08/07 05:05:14;;;;;;;0.10;0.10;;;;;;;22.94;54.83;102149.19;5130871;28;20133;-41
2022/08/07 05:08:03;;;;;;;0.10;0.10;;;;;;;22.94;54.48;102149.19;5103384;28;20043;-41
2022/08/07 05:10:37;;;;;;;0.10;0.10;;;;;;;22.94;54.47;102152.78;5128096;28;20397;-41
2022/08/07 05:13:08;;;;;;;0.10;0.10;;;;;;;22.95;54.81;102150.84;5107008;28;20043;-41
2022/08/07 05:15:54;;;;;;;0.10;0.10;;;;;;;22.95;54.51;102153.63;5096841;28;20447;-41
2022/08/07 05:18:28;;;;;;;0.10;0.10;;;;;;;22.94;54.45;102152.78;5131273;28;20082;-41
2022/08/07 05:20:57;;;;;;;0.10;0.10;;;;;;;22.93;54.94;102153.91;5111636;28;20051;-41
2022/08/07 05:23:31;;;;;;;0.10;0.10;;;;;;;22.94;54.78;102155.56;5109541;28;20047;-41
2022/08/07 05:26:03;;;;;;;0.10;0.10;;;;;;;22.94;54.37;102160.28;5130470;28;20084;-40
2022/08/07 05:28:45;;;;;;;0.10;0.10;;;;;;;22.94;54.44;102161.13;5114147;28;20228;-40
2022/08/07 05:31:17;;;;;;;0.10;0.10;;;;;;;22.95;54.25;102161.94;5108102;28;20047;-41
2022/08/07 05:33:44;;;;;;;0.10;0.10;;;;;;;22.93;54.87;102159.47;5130843;28;20084;-40
2022/08/07 05:36:30;;;;;;;0.10;0.10;;;;;;;22.93;54.80;102153.06;5115832;28;20401;-40
2022/08/07 05:39:01;;;;;;;0.10;0.10;;;;;;;22.94;54.40;102166.69;5131152;28;20054;-41
2022/08/07 05:41:47;;;;;;;0.10;0.10;;;;;;;22.93;54.67;102165.03;5087020;28;20043;-41
2022/08/07 05:44:29;;;;;;;0.10;0.10;;;;;;;22.93;54.81;102167.78;5128843;28;20545;-41
2022/08/07 05:46:55;;;;;;;0.10;0.10;;;;;;;22.93;54.44;102173.34;5125634;28;20081;-41
2022/08/07 05:49:21;;;;;;;0.10;0.10;;;;;;;22.93;54.73;102167.78;5126494;28;20370;-41
2022/08/07 05:51:47;;;;;;;0.10;0.10;;;;;;;22.93;54.39;102178.06;5128564;28;20043;-41
2022/08/07 05:54:15;;;;;;;0.10;0.10;;;;;;;22.93;54.41;102167.78;5128810;28;20035;-41
2022/08/07 05:57:01;;;;;;;0.10;0.10;;;;;;;22.94;54.55;102177.78;5098683;28;20043;-41
2022/08/07 05:59:31;;;;;;;0.10;0.10;;;;;;;22.92;54.79;102171.66;5129173;27;20063;-41
2022/08/07 06:02:17;;;;;;;;;;;;;;;22.94;54.31;102175.00;5099014;28;20044;-39
2022/08/07 06:04:56;;;;;;;0.10;0.10;;;;;;;22.92;54.61;102182.78;5129505;28;19920;-41
2022/08/07 06:07:22;;;;;;;0.10;0.10;;;;;;;22.92;54.89;102182.78;5128715;28;20043;-41
2022/08/07 06:10:09;;;;;;;0.10;0.10;;;;;;;22.94;54.54;102182.50;5101314;28;20378;-39
2022/08/07 06:12:40;;;;;;;0.10;0.10;;;;;;;22.92;54.39;102185.56;5128875;28;20040;-41
2022/08/07 06:15:08;;;;;;;0.10;0.10;;;;;;;22.93;54.88;102189.19;5128807;28;20043;-40
2022/08/07 06:17:34;;;;;;;0.10;0.10;;;;;;;22.93;54.89;102195.56;5106048;28;20122;-41
2022/08/07 06:20:04;;;;;;;0.10;0.10;;;;;;;22.93;54.82;102195.56;5127497;28;20044;-41
2022/08/07 06:22:32;;;;;;;0.10;0.10;;;;;;;22.94;54.85;102188.91;5129333;28;20039;-41
2022/08/07 06:25:04;;;;;;;0.10;0.10;;;;;;;22.93;54.89;102191.97;5110316;28;20480;-41
2022/08/07 06:27:31;;;;;;;0.10;0.10;;;;;;;22.93;54.41;102190.03;5123321;28;20039;-41
2022/08/07 06:30:16;;;;;;;0.10;0.10;;;;;;;22.92;54.78;102182.78;5112324;28;20051;-40
2022/08/07 06:33:02;;;;;;;0.10;0.10;;;;;;;22.94;54.62;102188.06;5129210;28;20047;-39
2022/08/07 06:35:29;;;;;;;0.10;0.10;;;;;;;22.93;54.32;102183.63;5109244;28;20071;-39
2022/08/07 06:38:11;;;;;;;0.10;0.10;;;;;;;22.93;54.41;102187.25;5127458;28;20047;-40
2022/08/07 06:40:48;;;;;;;0.10;0.10;;;;;;;22.92;54.49;102185.56;5127756;28;20477;-42
2022/08/07 06:43:15;;;;;;;0.10;0.10;;;;;;;22.93;54.74;102178.06;5127135;28;20477;-40
2022/08/07 06:45:48;;;;;;;0.10;0.10;;;;;;;22.92;54.77;102180.00;5122105;28;20043;-41
2022/08/07 06:48:13;;;;;;;0.10;0.10;;;;;;;22.92;54.65;102180.00;5126199;28;20087;-41
2022/08/07 06:50:40;;;;;;;0.10;0.10;;;;;;;22.92;54.38;102174.44;5124535;28;20046;-40
2022/08/07 06:53:13;;;;;;;0.10;0.10;;;;;;;22.92;54.79;102174.44;5112215;28;20047;-41
2022/08/07 06:56:00;;;;;;;0.10;0.10;;;;;;;22.92;54.33;102168.88;5109286;28;20107;-41
2022/08/07 06:58:27;;;;;;;0.10;0.10;;;;;;;22.92;54.65;102165.28;5127337;28;20417;-40
2022/08/07 07:00:57;;;;;;;0.10;0.10;;;;;;;22.92;54.53;102162.50;5129701;27;20118;-41
2022/08/07 07:03:23;;;;;;;0.10;0.10;;;;;;;22.92;54.62;102166.09;5128163;28;20063;-41
2022/08/07 07:06:09;;;;;;;0.10;0.10;;;;;;;22.92;54.63;102168.88;5112158;28;20393;-39
2022/08/07 07:08:37;;;;;;;0.10;0.10;;;;;;;22.92;54.79;102168.88;5108430;28;20058;-41
2022/08/07 07:11:12;;;;;;;0.10;0.10;;;;;;;22.91;54.84;102170.00;5125281;27;20058;-40
2022/08/07 07:13:58;;;;;;;0.10;0.10;;;;;;;22.92;54.61;102173.59;5110509;28;20051;-41
2022/08/07 07:16:30;;;;;;;0.10;0.10;;;;;;;22.92;54.78;102168.88;5124691;28;20071;-41
2022/08/07 07:19:02;;;;;;;0.10;0.10;;;;;;;22.92;54.64;102168.06;5111670;28;20099;-41
2022/08/07 07:21:48;;;;;;;0.10;0.10;;;;;;;22.93;54.43;102172.53;5082789;28;20043;-41
2022/08/07 07:24:33;;;;;;;0.10;0.10;;;;;;;22.92;54.75;102168.06;5114616;28;20051;-41
2022/08/07 07:27:02;;;;;;;0.10;0.10;;;;;;;22.91;55.16;102175.56;5128485;28;20100;-40
2022/08/07 07:29:33;;;;;;;0.10;0.10;;;;;;;22.92;54.94;102163.31;5127500;28;20043;-41
2022/08/07 07:32:19;;;;;;;0.10;0.10;;;;;;;22.91;54.78;102167.22;5111814;28;20042;-41
2022/08/07 07:34:47;;;;;;;0.10;0.10;;;;;;;22.91;54.61;102167.22;5127528;28;20176;-40
2022/08/07 07:37:15;;;;;;;0.10;0.10;;;;;;;22.91;54.73;102156.13;5122981;28;20138;-39
2022/08/07 07:40:04;;;;;;;0.10;0.10;;;;;;;22.92;54.63;102165.28;5094662;28;20047;-41
2022/08/07 07:42:41;;;;;;;0.10;0.10;;;;;;;22.92;54.76;102168.06;5126443;28;20081;-41
2022/08/07 07:45:08;;;;;;;0.10;0.10;;;;;;;22.92;54.49;102162.50;5103483;28;20220;-41
2022/08/07 07:47:38;;;;;;;0.10;0.10;;;;;;;22.91;55.15;102166.38;5124179;28;20088;-39
2022/08/07 07:50:20;;;;;;;0.10;0.10;;;;;;;22.90;54.87;102168.34;5126318;28;20076;-41
2022/08/07 07:53:05;;;;;;;0.10;0.10;;;;;;;22.91;54.49;102155.28;5111019;28;20043;-39
2022/08/07 07:55:45;;;;;;;0.10;0.10;;;;;;;22.92;54.25;102152.22;5129839;28;20047;-41
2022/08/07 07:58:28;;;;;;;0.10;0.10;;;;;;;22.91;54.57;102153.34;5127165;28;20051;-40
2022/08/07 08:00:54;;;;;;;;;;;;;;;22.91;54.69;102150.56;5091769;28;20126;-41
2022/08/07 08:03:22;;;;;;;0.10;0.10;;;;;;;22.90;54.21;102151.66;5129043;27;19927;-41
2022/08/07 08:06:09;;;;;;;0.10;0.10;;;;;;;22.91;54.83;102144.16;5110040;28;20047;-39
2022/08/07 08:08:40;;;;;;;0.10;0.10;;;;;;;22.91;54.83;102150.56;5126616;28;20062;-41
2022/08/07 08:11:09;;;;;;;0.75;0.30;;;;;;;22.91;54.75;102147.78;5129630;28;20050;-41
2022/08/07 08:13:43;;;;;;;0.10;0.10;;;;;;;22.91;54.72;102147.78;5120261;28;20469;-40
2022/08/07 08:16:23;;;;;;;0.10;0.10;;;;;;;22.90;54.90;102151.66;5108259;28;20039;-41
2022/08/07 08:19:12;;;;;;;0.15;0.15;;;;;;;22.91;54.48;102149.72;5092008;28;20046;-40
2022/08/07 08:27:52;;;;;;;;;;;;;;;22.91;54.80;102131.09;5093791;28;20043;-42
2022/08/07 08:30:27;;;;;;;0.10;0.10;;;;;;;22.91;54.49;102138.63;5130296;28;20307;-41
2022/08/07 08:32:57;;;;;;;0.10;0.10;;;;;;;22.91;54.63;102133.06;5131426;28;20456;-41
2022/08/07 08:35:24;;;;;;;0.10;0.10;;;;;;;22.91;54.36;102130.28;5112814;28;20043;-41
2022/08/07 08:37:57;;;;;;;0.10;0.10;;;;;;;22.90;55.24;102132.22;5110668;28;20112;-41
2022/08/07 08:40:31;;;;;;;0.10;0.10;;;;;;;22.89;54.93;102130.53;5113863;28;20051;-39
2022/08/07 08:43:08;;;;;;;0.10;0.10;;;;;;;22.91;54.78;102131.09;5130049;28;20036;-41
2022/08/07 08:45:41;;;;;;;0.10;0.10;;;;;;;22.91;54.67;102127.50;5105735;28;20130;-40
2022/08/07 08:48:48;;;;;;;0.10;0.10;;;;;;;22.91;55.00;102133.06;5116459;28;20052;-41
2022/08/07 08:51:31;;;;;;;0.10;0.10;;;;;;;22.91;54.59;102120.00;5114585;28;20039;-40
2022/08/07 08:54:55;;;;;;;0.10;0.10;;;;;;;22.91;55.12;102121.94;5113878;28;20043;-40
2022/08/07 08:57:35;;;;;;;0.10;0.10;;;;;;;22.90;54.59;102126.69;5130215;28;20497;-39
2022/08/07 09:00:07;;;;;;;0.10;0.10;;;;;;;22.90;54.73;102126.69;5127522;27;20082;-40
2022/08/07 09:02:57;;;;;;;0.10;0.10;;;;;;;22.90;54.50;102117.50;5131769;28;20481;-40
2022/08/07 09:05:33;;;;;;;0.10;0.10;;;;;;;22.91;55.07;102113.63;5097741;28;20129;-39
2022/08/07 09:11:15;;;;;;;0.10;0.10;;;;;;;22.91;55.00;102113.63;5177081;27;20639;-39
2022/08/07 09:14:31;;;;;;;0.10;0.10;;;;;;;22.90;55.14;102112.78;5129103;27;20047;-39
2022/08/07 09:17:03;;;;;;;0.10;0.10;;;;;;;22.90;54.47;102109.19;5125627;27;20074;-39
2022/08/07 09:19:44;;;;;;;0.10;0.10;;;;;;;22.90;54.42;102110.00;5155984;27;20058;-38
2022/08/07 09:22:46;;;;;;;0.10;0.10;;;;;;;22.89;55.07;102113.88;5138184;27;20047;-39
2022/08/07 09:25:59;;;;;;;0.10;0.10;;;;;;;22.89;55.04;102107.47;5132865;27;20046;-39
2022/08/07 09:28:34;;;;;;;0.10;0.10;;;;;;;22.90;54.34;102103.63;5143449;27;20054;-38
2022/08/07 09:31:43;;;;;;;0.10;0.10;;;;;;;22.90;54.34;102112.78;5140560;27;20054;-39
2022/08/07 09:34:20;;;;;;;0.10;0.10;;;;;;;22.89;54.65;102111.09;5139890;27;20045;-39
2022/08/07 09:36:58;;;;;;;0.10;0.10;;;;;;;22.90;55.03;102115.56;5140424;27;20133;-37
2022/08/07 09:39:35;;;;;;;0.10;0.10;;;;;;;22.90;54.97;102101.66;5125145;27;20065;-39
2022/08/07 09:45:19;;;;;;;0.10;0.10;;;;;;;22.90;55.04;102111.97;5179649;27;20619;-37
2022/08/07 09:48:44;;;;;;;0.10;0.10;;;;;;;22.89;55.06;102097.19;5153243;27;20085;-39
2022/08/07 09:51:56;;;;;;;0.10;0.10;;;;;;;22.90;54.84;102095.28;5128914;27;20523;-37
2022/08/07 09:54:46;;;;;;;0.10;0.10;;;;;;;22.90;55.04;102089.72;5132074;27;20043;-38
2022/08/07 09:57:46;;;;;;;0.10;0.10;;;;;;;22.89;54.94;102086.09;5149972;27;20066;-39
2022/08/07 10:00:15;;;;;;;0.10;0.10;;;;;;;22.90;55.09;102089.72;5151707;27;20038;-37
2022/08/07 10:03:09;;;;;;;0.10;0.10;;;;;;;22.90;55.05;102087.78;5150229;27;20039;-37
2022/08/07 10:06:29;;;;;;;0.10;0.10;;;;;;;22.91;54.38;102077.50;5133722;27;20054;-37
2022/08/07 10:09:08;;;;;;;0.10;0.10;;;;;;;22.91;54.72;102077.50;5152046;27;20133;-37
2022/08/07 10:12:14;;;;;;;0.10;0.10;;;;;;;22.90;54.97;102081.41;5149666;27;20343;-37
2022/08/07 10:15:04;;;;;;;0.10;0.10;;;;;;;22.89;55.14;102071.38;5152802;27;20077;-39
2022/08/07 10:17:58;;;;;;;0.10;0.10;;;;;;;22.89;55.07;102063.88;5131769;27;20054;-39
2022/08/07 10:20:38;;;;;;;0.10;0.10;;;;;;;22.90;54.91;102070.28;5152373;27;20053;-39
2022/08/07 10:23:33;;;;;;;0.10;0.10;;;;;;;22.89;55.02;102065.81;5149648;27;20134;-38
2022/08/07 10:29:33;;;;;;;0.10;0.10;;;;;;;22.89;54.74;102072.19;5165898;27;20148;-39
2022/08/07 10:32:40;;;;;;;0.10;0.10;;;;;;;22.90;54.35;102059.19;5133586;27;20408;-38
2022/08/07 10:35:33;;;;;;;0.10;0.10;;;;;;;22.89;54.92;102055.53;5141573;27;20193;-37
2022/08/07 10:38:31;;;;;;;0.10;0.10;;;;;;;22.89;55.06;102052.75;5147141;27;20051;-39
2022/08/07 10:41:26;;;;;;;0.10;0.10;;;;;;;22.89;54.96;102049.97;5167021;27;20039;-39
2022/08/07 10:44:19;;;;;;;0.10;0.10;;;;;;;22.89;54.69;102043.59;5126172;27;20046;-39
2022/08/07 10:47:16;;;;;;;0.10;0.10;;;;;;;22.89;55.09;102055.53;5146948;27;20427;-39
2022/08/07 10:49:47;;;;;;;0.10;0.10;;;;;;;22.90;55.04;102048.06;5164107;27;20082;-39
2022/08/07 10:52:24;;;;;;;0.10;0.10;;;;;;;22.89;55.07;102044.44;5165661;27;20039;-37
2022/08/07 10:55:10;;;;;;;0.10;0.10;;;;;;;22.89;54.93;102033.31;5163852;27;20046;-39
2022/08/07 10:58:23;;;;;;;0.10;0.10;;;;;;;22.89;54.75;102030.53;5147944;27;20046;-39
2022/08/07 11:01:40;;;;;;;0.10;0.10;;;;;;;22.90;54.33;102032.22;5150865;27;20034;-38
2022/08/07 11:05:06;;;;;;;0.10;0.10;;;;;;;22.87;54.98;102016.09;5131976;27;20049;-37
2022/08/07 11:07:58;;;;;;;0.10;0.10;;;;;;;22.89;54.91;102018.59;5138770;27;20115;-39
2022/08/07 11:10:54;;;;;;;0.10;0.10;;;;;;;22.89;54.85;102013.88;5165097;27;20091;-39
2022/08/07 11:13:48;;;;;;;0.10;0.10;;;;;;;22.88;54.92;102009.41;5135900;27;20046;-35
2022/08/07 11:16:55;;;;;;;0.10;0.10;;;;;;;22.89;55.15;102007.50;5124020;27;20392;-38
2022/08/07 11:19:50;;;;;;;0.10;0.10;;;;;;;22.89;54.81;102010.25;5145364;27;20079;-37
2022/08/07 11:22:24;;;;;;;0.10;0.10;;;;;;;22.90;55.04;102011.97;5132318;27;20046;-39
2022/08/07 11:25:15;;;;;;;0.10;0.10;;;;;;;22.89;55.05;101999.97;5165110;27;20412;-37
2022/08/07 11:27:50;;;;;;;0.10;0.10;;;;;;;22.89;54.72;102005.53;5146512;27;20076;-36
2022/08/07 11:30:38;;;;;;;0.10;0.10;;;;;;;22.88;54.75;102003.84;5148475;27;20076;-37
2022/08/07 11:33:30;;;;;;;0.10;0.10;;;;;;;22.90;54.49;101998.06;5148603;27;20049;-39
2022/08/07 11:36:38;;;;;;;0.10;0.10;;;;;;;22.89;54.99;101994.44;5133238;27;20497;-37
2022/08/07 11:39:14;;;;;;;0.10;0.10;;;;;;;22.89;54.99;101988.03;5142646;27;20090;-36
2022/08/07 11:41:54;;;;;;;0.10;0.10;;;;;;;22.88;55.03;101983.59;5147653;27;20142;-37
2022/08/07 11:44:35;;;;;;;0.10;0.10;;;;;;;22.89;54.90;101985.28;5136215;27;20041;-39
2022/08/07 11:47:15;;;;;;;0.10;0.10;;;;;;;22.89;54.79;101982.50;5136542;27;20122;-39
2022/08/07 11:50:20;;;;;;;0.10;0.10;;;;;;;22.90;54.91;101981.41;5152527;27;20089;-37
2022/08/07 11:53:15;;;;;;;0.10;0.10;;;;;;;22.89;54.97;101977.75;5128267;27;20389;-38
2022/08/07 11:56:10;;;;;;;0.10;0.10;;;;;;;22.89;54.97;101982.50;5135139;27;20133;-37
2022/08/07 11:59:21;;;;;;;0.10;0.10;;;;;;;22.89;54.84;101980.53;5141749;27;20076;-37
2022/08/07 12:02:29;;;;;;;0.10;0.10;;;;;;;22.87;55.03;101977.19;5131069;27;20054;-37
2022/08/07 12:05:36;;;;;;;0.10;0.10;;;;;;;22.88;54.92;101976.06;5152305;27;20103;-37
2022/08/07 12:08:20;;;;;;;0.10;0.10;;;;;;;22.89;54.99;101977.75;5129277;27;20047;-37
2022/08/07 12:11:05;;;;;;;0.10;0.10;;;;;;;22.90;54.84;101981.41;5135499;27;20070;-37
2022/08/07 12:13:55;;;;;;;0.10;0.10;;;;;;;22.89;55.07;101971.38;5137563;27;20310;-38
2022/08/07 12:16:43;;;;;;;0.10;0.10;;;;;;;22.89;55.02;101974.16;5134364;27;20533;-39
2022/08/07 12:22:36;;;;;;;0.10;0.10;;;;;;;22.88;55.03;101970.53;5169181;27;21339;-36
2022/08/07 12:26:02;;;;;;;0.10;0.10;;;;;;;22.88;55.09;101972.47;5132589;27;20042;-37
2022/08/07 12:29:00;;;;;;;0.10;0.10;;;;;;;22.87;55.00;101970.81;5132120;27;20043;-39
2022/08/07 12:31:48;;;;;;;0.10;0.10;;;;;;;22.89;54.59;101971.38;5137995;27;20080;-37
2022/08/07 12:34:29;;;;;;;0.10;0.10;;;;;;;22.90;54.96;101959.19;5143828;27;20058;-37
2022/08/07 12:36:55;;;;;;;0.10;0.10;;;;;;;22.88;55.13;101953.84;5153372;27;20126;-37
2022/08/07 12:39:23;;;;;;;0.10;0.10;;;;;;;22.88;54.93;101944.69;5156144;27;20495;-39